Main page
METAR-TAF:

METAR-TAF

Airports :

Port Moresby, Papua New Guinea

Jacksons International Airport

latitude: 09-26S, longitude: 147-13E, elevation: 38 m

Current weather observation

The report was made 32 minutes ago, at 10:00 UTC
Wind 8 kt from the South/Southeast
Temperature 27°C
Humidity 84%
Pressure 1009 hPa
Visibility 10 km or more
Broken clouds at a height of 5000 ft

METAR: AYPY 281000Z 15008KT 9999 BKN050 27/24 Q1009

Time: 20:32 (10:32 UTC)

Forecast

The report was made 8 hours and 1 minutes ago, at 02:31 UTC
Forecast valid from 28 at 06 UTC to 29 at 06 UTC
Wind 15 kt from variable directions with gusts up to 25 kt
Visibility: 4000 m
Scattered clouds at a height of 1800 ft
Broken clouds at a height of 4000 ft
Broken clouds at a height of 800 ft
Few clouds at a height of 1800 ft, Cumulonimbus.
light rain showers, thunderstorm, rain

TAF: AYPY 280231Z 2806/2906 16015KT 9999 -SHRA SCT018 BKN040 INTER 2806/2810 VRB15G25KT 4000 TSRA BKN008 FEW018CB

Weather observations and forecasts of more than 4000 airports (METAR and TAF reports).

The available stations are represented by yellow and red dots on the map.

Hover mouse over dot to see the name of the station.

Then click to see weather observations and forecasts.

To change the map : click on the green buttons with a black cross to zoom in, on the green button with a dash to zoom out, or on the green arrows for adjacent maps.


METAR-TAF: